Terminal Aerodrome Forecast
Issued by NWS

Home | Current Version | Previous Version | Text Only | Print | Product List | Glossary On
Versions: 1 2 3 4 5 6 7 8 9 10 11 12 13 14 15 16 17 18 19 20 21 22 23 24 25 26 27 28 29 30 31 32 33 34 35 36
000
FTUS44 KLIX 030500
TAFHUM
TAF
KHUM 030527Z 0306/0406 13005KT 1/4SM FG OVC003
     FM031500 15011KT P6SM BKN008
     FM031800 17013KT P6SM BKN015
     FM032100 17013KT P6SM BKN025
     FM040000 17011KT 5SM BR BKN020
     FM040500 17007KT 1/2SM FG BKN008=

USA.gov is the U.S. government's official web portal to all federal, state and local government web resources and services.